Terminal Aerodrome Forecast
Issued by NWS

Current Version | Previous Version | Text Only | Print | Product List | Glossary Off
Versions: 1 2 3 4 5 6 7 8 9 10 11 12 13 14 15 16 17

000
FTUS41 KPBZ 201100 RRA
TAFHLG
TAF
KHLG 201153Z 2012/2112 12008KT P6SM BKN045
     FM201500 18010G20KT P6SM BKN040
     FM202300 18005KT P6SM BKN100 BKN250
     FM210800 21006KT P6SM -SHRA OVC030=

USA.gov is the U.S. government's official web portal to all federal, state and local government web resources and services.